sensor_id;sensor_type;location;lat;lon;timestamp;temperature;humidity
30150;DHT22;16962;48.646;9.026;2023-05-07T00:01:37;11.50;99.90
30150;DHT22;16962;48.646;9.026;2023-05-07T00:04:43;11.50;99.90
30150;DHT22;16962;48.646;9.026;2023-05-07T00:07:31;11.60;99.90
30150;DHT22;16962;48.646;9.026;2023-05-07T00:10:18;11.70;99.90
30150;DHT22;16962;48.646;9.026;2023-05-07T00:13:06;11.80;99.90
30150;DHT22;16962;48.646;9.026;2023-05-07T00:15:55;11.70;99.90
30150;DHT22;16962;48.646;9.026;2023-05-07T00:18:44;11.70;99.90
30150;DHT22;16962;48.646;9.026;2023-05-07T00:21:32;11.60;99.90
30150;DHT22;16962;48.646;9.026;2023-05-07T00:24:19;11.60;99.90
30150;DHT22;16962;48.646;9.026;2023-05-07T00:27:06;11.50;99.90
30150;DHT22;16962;48.646;9.026;2023-05-07T00:29:56;11.50;99.90
30150;DHT22;16962;48.646;9.026;2023-05-07T00:32:46;11.50;99.90
30150;DHT22;16962;48.646;9.026;2023-05-07T00:35:36;11.50;99.90
30150;DHT22;16962;48.646;9.026;2023-05-07T00:38:23;11.50;1.00
30150;DHT22;16962;48.646;9.026;2023-05-07T00:41:10;11.60;1.00
30150;DHT22;16962;48.646;9.026;2023-05-07T00:44:04;11.50;1.00
30150;DHT22;16962;48.646;9.026;2023-05-07T00:46:51;11.50;1.00
30150;DHT22;16962;48.646;9.026;2023-05-07T00:49:42;11.50;1.00
30150;DHT22;16962;48.646;9.026;2023-05-07T00:52:32;11.60;1.00
30150;DHT22;16962;48.646;9.026;2023-05-07T00:55:21;11.60;1.00
30150;DHT22;16962;48.646;9.026;2023-05-07T00:58:08;11.70;1.00
30150;DHT22;16962;48.646;9.026;2023-05-07T01:00:55;11.60;99.90
30150;DHT22;16962;48.646;9.026;2023-05-07T01:03:43;11.60;99.90
30150;DHT22;16962;48.646;9.026;2023-05-07T01:06:32;11.60;99.90
30150;DHT22;16962;48.646;9.026;2023-05-07T01:09:20;11.50;99.90
30150;DHT22;16962;48.646;9.026;2023-05-07T01:12:08;11.40;99.90
30150;DHT22;16962;48.646;9.026;2023-05-07T01:14:55;11.40;1.00
30150;DHT22;16962;48.646;9.026;2023-05-07T01:17:46;11.30;1.00
30150;DHT22;16962;48.646;9.026;2023-05-07T01:20:34;11.30;1.00
30150;DHT22;16962;48.646;9.026;2023-05-07T01:23:22;11.30;99.90
30150;DHT22;16962;48.646;9.026;2023-05-07T01:26:10;11.30;99.90
30150;DHT22;16962;48.646;9.026;2023-05-07T01:28:57;11.30;99.90
30150;DHT22;16962;48.646;9.026;2023-05-07T01:31:45;11.30;99.90
30150;DHT22;16962;48.646;9.026;2023-05-07T01:34:36;11.20;99.90
30150;DHT22;16962;48.646;9.026;2023-05-07T01:37:26;11.20;99.90
30150;DHT22;16962;48.646;9.026;2023-05-07T01:40:16;11.20;99.90
30150;DHT22;16962;48.646;9.026;2023-05-07T01:43:06;11.10;99.90
30150;DHT22;16962;48.646;9.026;2023-05-07T01:45:57;11.00;99.90
30150;DHT22;16962;48.646;9.026;2023-05-07T01:48:46;11.00;99.90
30150;DHT22;16962;48.646;9.026;2023-05-07T01:51:33;11.00;1.00
30150;DHT22;16962;48.646;9.026;2023-05-07T01:54:25;10.90;39.40
30150;DHT22;16962;48.646;9.026;2023-05-07T01:57:16;10.90;99.90
30150;DHT22;16962;48.646;9.026;2023-05-07T02:00:05;10.90;99.90
30150;DHT22;16962;48.646;9.026;2023-05-07T02:02:52;10.90;1.00
30150;DHT22;16962;48.646;9.026;2023-05-07T02:05:40;10.90;1.00
30150;DHT22;16962;48.646;9.026;2023-05-07T02:08:30;10.90;40.50
30150;DHT22;16962;48.646;9.026;2023-05-07T02:11:17;10.80;99.90
30150;DHT22;16962;48.646;9.026;2023-05-07T02:14:05;10.80;99.90
30150;DHT22;16962;48.646;9.026;2023-05-07T02:16:52;10.70;99.90
30150;DHT22;16962;48.646;9.026;2023-05-07T02:19:44;10.70;1.00
30150;DHT22;16962;48.646;9.026;2023-05-07T02:22:31;10.70;1.00
30150;DHT22;16962;48.646;9.026;2023-05-07T02:25:20;10.70;3.10
30150;DHT22;16962;48.646;9.026;2023-05-07T02:28:07;10.70;99.90
30150;DHT22;16962;48.646;9.026;2023-05-07T02:30:54;10.70;99.90
30150;DHT22;16962;48.646;9.026;2023-05-07T02:33:42;10.60;99.90
30150;DHT22;16962;48.646;9.026;2023-05-07T02:36:29;10.60;99.90
30150;DHT22;16962;48.646;9.026;2023-05-07T02:39:16;10.50;99.90
30150;DHT22;16962;48.646;9.026;2023-05-07T02:42:04;10.50;99.90
30150;DHT22;16962;48.646;9.026;2023-05-07T02:44:51;10.40;1.00
30150;DHT22;16962;48.646;9.026;2023-05-07T02:47:38;10.50;99.90
30150;DHT22;16962;48.646;9.026;2023-05-07T02:50:26;10.50;99.90
30150;DHT22;16962;48.646;9.026;2023-05-07T02:53:13;10.50;99.90
30150;DHT22;16962;48.646;9.026;2023-05-07T02:56:01;10.50;99.90
30150;DHT22;16962;48.646;9.026;2023-05-07T02:58:49;10.30;99.90
30150;DHT22;16962;48.646;9.026;2023-05-07T03:01:38;10.20;99.90
30150;DHT22;16962;48.646;9.026;2023-05-07T03:04:25;10.10;99.90
30150;DHT22;16962;48.646;9.026;2023-05-07T03:07:12;10.20;99.90
30150;DHT22;16962;48.646;9.026;2023-05-07T03:10:00;10.20;1.00
30150;DHT22;16962;48.646;9.026;2023-05-07T03:12:47;10.10;79.60
30150;DHT22;16962;48.646;9.026;2023-05-07T03:15:36;10.10;99.90
30150;DHT22;16962;48.646;9.026;2023-05-07T03:18:24;10.10;1.00
30150;DHT22;16962;48.646;9.026;2023-05-07T03:21:19;10.00;54.40
30150;DHT22;16962;48.646;9.026;2023-05-07T03:24:09;10.00;99.90
30150;DHT22;16962;48.646;9.026;2023-05-07T03:26:56;10.00;1.00
30150;DHT22;16962;48.646;9.026;2023-05-07T03:29:44;9.90;1.00
30150;DHT22;16962;48.646;9.026;2023-05-07T03:32:34;9.90;1.00
30150;DHT22;16962;48.646;9.026;2023-05-07T03:35:21;9.80;1.00
30150;DHT22;16962;48.646;9.026;2023-05-07T03:38:08;9.70;99.90
30150;DHT22;16962;48.646;9.026;2023-05-07T03:40:56;9.70;99.90
30150;DHT22;16962;48.646;9.026;2023-05-07T03:43:43;9.70;1.00
30150;DHT22;16962;48.646;9.026;2023-05-07T03:46:31;9.80;15.60
30150;DHT22;16962;48.646;9.026;2023-05-07T03:49:22;9.80;87.60
30150;DHT22;16962;48.646;9.026;2023-05-07T03:52:09;9.80;99.90
30150;DHT22;16962;48.646;9.026;2023-05-07T03:54:59;9.80;99.90
30150;DHT22;16962;48.646;9.026;2023-05-07T03:57:48;9.80;99.90
30150;DHT22;16962;48.646;9.026;2023-05-07T04:00:36;9.70;99.90
30150;DHT22;16962;48.646;9.026;2023-05-07T04:03:25;9.70;99.90
30150;DHT22;16962;48.646;9.026;2023-05-07T04:06:18;9.60;99.90
30150;DHT22;16962;48.646;9.026;2023-05-07T04:09:05;9.60;99.90
30150;DHT22;16962;48.646;9.026;2023-05-07T04:11:53;9.60;99.90
30150;DHT22;16962;48.646;9.026;2023-05-07T04:14:47;9.50;99.90
30150;DHT22;16962;48.646;9.026;2023-05-07T04:17:36;9.50;99.90
30150;DHT22;16962;48.646;9.026;2023-05-07T04:20:23;9.60;99.90
30150;DHT22;16962;48.646;9.026;2023-05-07T04:23:13;9.60;99.90
30150;DHT22;16962;48.646;9.026;2023-05-07T04:26:00;9.70;99.90
30150;DHT22;16962;48.646;9.026;2023-05-07T04:28:47;9.70;99.90
30150;DHT22;16962;48.646;9.026;2023-05-07T04:31:37;9.80;99.90
30150;DHT22;16962;48.646;9.026;2023-05-07T04:34:24;9.90;99.90
30150;DHT22;16962;48.646;9.026;2023-05-07T04:37:12;10.00;99.90
30150;DHT22;16962;48.646;9.026;2023-05-07T04:39:59;10.00;99.90
30150;DHT22;16962;48.646;9.026;2023-05-07T04:42:47;10.00;99.90
30150;DHT22;16962;48.646;9.026;2023-05-07T04:45:35;10.00;99.90
30150;DHT22;16962;48.646;9.026;2023-05-07T04:48:23;10.00;99.90
30150;DHT22;16962;48.646;9.026;2023-05-07T04:51:10;10.10;99.90
30150;DHT22;16962;48.646;9.026;2023-05-07T04:54:04;10.10;99.90
30150;DHT22;16962;48.646;9.026;2023-05-07T04:56:51;10.10;99.90
30150;DHT22;16962;48.646;9.026;2023-05-07T04:59:39;10.10;99.90
30150;DHT22;16962;48.646;9.026;2023-05-07T05:02:26;10.30;99.90
30150;DHT22;16962;48.646;9.026;2023-05-07T05:05:13;10.50;83.00
30150;DHT22;16962;48.646;9.026;2023-05-07T05:08:00;10.50;1.00
30150;DHT22;16962;48.646;9.026;2023-05-07T05:10:48;10.60;99.90
30150;DHT22;16962;48.646;9.026;2023-05-07T05:13:39;10.80;20.10
30150;DHT22;16962;48.646;9.026;2023-05-07T05:16:26;11.00;99.90
30150;DHT22;16962;48.646;9.026;2023-05-07T05:19:13;11.20;1.00
30150;DHT22;16962;48.646;9.026;2023-05-07T05:22:02;11.50;1.00
30150;DHT22;16962;48.646;9.026;2023-05-07T05:24:50;11.60;1.00
30150;DHT22;16962;48.646;9.026;2023-05-07T05:27:40;11.70;1.00
30150;DHT22;16962;48.646;9.026;2023-05-07T05:30:27;11.70;99.60
30150;DHT22;16962;48.646;9.026;2023-05-07T05:33:14;11.70;1.00
30150;DHT22;16962;48.646;9.026;2023-05-07T05:36:01;11.80;99.90
30150;DHT22;16962;48.646;9.026;2023-05-07T05:38:49;12.00;99.90
30150;DHT22;16962;48.646;9.026;2023-05-07T05:41:36;12.10;99.90
30150;DHT22;16962;48.646;9.026;2023-05-07T05:44:23;12.40;99.90
30150;DHT22;16962;48.646;9.026;2023-05-07T05:47:11;12.60;99.90
30150;DHT22;16962;48.646;9.026;2023-05-07T05:49:58;12.80;1.00
30150;DHT22;16962;48.646;9.026;2023-05-07T05:52:45;13.00;99.90
30150;DHT22;16962;48.646;9.026;2023-05-07T05:55:33;13.30;99.90
30150;DHT22;16962;48.646;9.026;2023-05-07T05:58:43;13.50;1.00
30150;DHT22;16962;48.646;9.026;2023-05-07T06:01:30;13.70;99.90
30150;DHT22;16962;48.646;9.026;2023-05-07T06:04:18;13.90;99.90
30150;DHT22;16962;48.646;9.026;2023-05-07T06:07:05;14.10;1.00
30150;DHT22;16962;48.646;9.026;2023-05-07T06:10:00;14.20;1.00
30150;DHT22;16962;48.646;9.026;2023-05-07T06:12:47;14.30;1.00
30150;DHT22;16962;48.646;9.026;2023-05-07T06:15:34;14.50;1.00
30150;DHT22;16962;48.646;9.026;2023-05-07T06:18:21;14.70;99.90
30150;DHT22;16962;48.646;9.026;2023-05-07T06:21:09;14.80;99.90
30150;DHT22;16962;48.646;9.026;2023-05-07T06:23:57;15.00;99.90
30150;DHT22;16962;48.646;9.026;2023-05-07T06:26:44;15.20;99.90
30150;DHT22;16962;48.646;9.026;2023-05-07T06:29:31;15.50;99.90
30150;DHT22;16962;48.646;9.026;2023-05-07T06:32:20;15.70;99.90
30150;DHT22;16962;48.646;9.026;2023-05-07T06:35:10;15.90;99.90
30150;DHT22;16962;48.646;9.026;2023-05-07T06:37:57;16.00;99.90
30150;DHT22;16962;48.646;9.026;2023-05-07T06:40:49;16.10;73.30
30150;DHT22;16962;48.646;9.026;2023-05-07T06:43:36;16.10;46.00
30150;DHT22;16962;48.646;9.026;2023-05-07T06:46:23;16.20;18.30
30150;DHT22;16962;48.646;9.026;2023-05-07T06:49:14;16.40;1.00
30150;DHT22;16962;48.646;9.026;2023-05-07T06:52:01;16.50;1.00
30150;DHT22;16962;48.646;9.026;2023-05-07T06:54:48;16.70;1.00
30150;DHT22;16962;48.646;9.026;2023-05-07T06:57:36;16.80;1.00
30150;DHT22;16962;48.646;9.026;2023-05-07T07:00:24;17.10;1.00
30150;DHT22;16962;48.646;9.026;2023-05-07T07:03:12;17.40;1.00
30150;DHT22;16962;48.646;9.026;2023-05-07T07:05:59;17.40;1.00
30150;DHT22;16962;48.646;9.026;2023-05-07T07:08:48;17.90;1.00
30150;DHT22;16962;48.646;9.026;2023-05-07T07:19:41;19.90;99.90
30150;DHT22;16962;48.646;9.026;2023-05-07T07:22:29;20.30;99.90
30150;DHT22;16962;48.646;9.026;2023-05-07T07:25:18;20.70;99.90
30150;DHT22;16962;48.646;9.026;2023-05-07T07:28:06;20.50;99.90
30150;DHT22;16962;48.646;9.026;2023-05-07T07:30:53;20.70;99.90
30150;DHT22;16962;48.646;9.026;2023-05-07T07:33:41;20.90;99.90
30150;DHT22;16962;48.646;9.026;2023-05-07T07:36:28;21.40;99.90
30150;DHT22;16962;48.646;9.026;2023-05-07T07:39:31;21.20;99.90
30150;DHT22;16962;48.646;9.026;2023-05-07T07:42:21;20.80;99.90
30150;DHT22;16962;48.646;9.026;2023-05-07T07:45:08;20.40;99.90
30150;DHT22;16962;48.646;9.026;2023-05-07T07:47:56;20.10;99.90
30150;DHT22;16962;48.646;9.026;2023-05-07T07:50:48;20.30;99.90
30150;DHT22;16962;48.646;9.026;2023-05-07T07:53:36;20.10;99.90
30150;DHT22;16962;48.646;9.026;2023-05-07T07:56:23;20.50;99.90
30150;DHT22;16962;48.646;9.026;2023-05-07T07:59:11;21.00;99.90
30150;DHT22;16962;48.646;9.026;2023-05-07T08:01:58;21.10;99.90
30150;DHT22;16962;48.646;9.026;2023-05-07T08:04:45;21.40;99.90
30150;DHT22;16962;48.646;9.026;2023-05-07T08:07:33;22.10;99.90
30150;DHT22;16962;48.646;9.026;2023-05-07T08:10:23;22.80;99.90
30150;DHT22;16962;48.646;9.026;2023-05-07T08:13:10;23.10;99.90
30150;DHT22;16962;48.646;9.026;2023-05-07T08:16:00;23.50;99.90
30150;DHT22;16962;48.646;9.026;2023-05-07T08:18:47;24.20;99.90
30150;DHT22;16962;48.646;9.026;2023-05-07T08:21:38;24.80;78.20
30150;DHT22;16962;48.646;9.026;2023-05-07T08:24:25;24.40;66.80
30150;DHT22;16962;48.646;9.026;2023-05-07T08:27:12;24.20;49.10
30150;DHT22;16962;48.646;9.026;2023-05-07T08:29:59;23.50;51.20
30150;DHT22;16962;48.646;9.026;2023-05-07T08:32:47;23.10;47.90
30150;DHT22;16962;48.646;9.026;2023-05-07T08:35:36;22.90;35.10
30150;DHT22;16962;48.646;9.026;2023-05-07T08:38:24;23.40;40.30
30150;DHT22;16962;48.646;9.026;2023-05-07T08:41:18;23.80;30.20
30150;DHT22;16962;48.646;9.026;2023-05-07T08:44:11;23.10;30.00
30150;DHT22;16962;48.646;9.026;2023-05-07T08:47:01;23.20;30.90
30150;DHT22;16962;48.646;9.026;2023-05-07T08:49:51;24.10;27.10
30150;DHT22;16962;48.646;9.026;2023-05-07T08:52:42;25.00;36.80
30150;DHT22;16962;48.646;9.026;2023-05-07T08:55:29;26.00;31.90
30150;DHT22;16962;48.646;9.026;2023-05-07T08:58:17;26.90;15.30
30150;DHT22;16962;48.646;9.026;2023-05-07T09:01:08;26.60;6.50
30150;DHT22;16962;48.646;9.026;2023-05-07T09:03:57;27.20;3.40
30150;DHT22;16962;48.646;9.026;2023-05-07T09:06:44;26.80;1.00
30150;DHT22;16962;48.646;9.026;2023-05-07T09:09:35;26.90;1.00
30150;DHT22;16962;48.646;9.026;2023-05-07T09:12:22;27.10;1.00
30150;DHT22;16962;48.646;9.026;2023-05-07T09:15:10;27.70;1.00
30150;DHT22;16962;48.646;9.026;2023-05-07T09:18:03;28.30;1.00
30150;DHT22;16962;48.646;9.026;2023-05-07T09:20:50;28.80;1.00
30150;DHT22;16962;48.646;9.026;2023-05-07T09:23:38;28.30;1.00
30150;DHT22;16962;48.646;9.026;2023-05-07T09:26:26;28.20;1.00
30150;DHT22;16962;48.646;9.026;2023-05-07T09:29:15;27.70;1.00
30150;DHT22;16962;48.646;9.026;2023-05-07T09:32:05;27.50;1.00
30150;DHT22;16962;48.646;9.026;2023-05-07T09:34:56;26.80;1.00
30150;DHT22;16962;48.646;9.026;2023-05-07T09:37:43;26.80;1.00
30150;DHT22;16962;48.646;9.026;2023-05-07T09:40:31;26.40;1.00
30150;DHT22;16962;48.646;9.026;2023-05-07T09:43:18;26.50;1.00
30150;DHT22;16962;48.646;9.026;2023-05-07T09:46:14;27.20;1.00
30150;DHT22;16962;48.646;9.026;2023-05-07T09:49:02;28.00;1.00
30150;DHT22;16962;48.646;9.026;2023-05-07T09:51:52;28.50;1.00
30150;DHT22;16962;48.646;9.026;2023-05-07T09:54:40;29.00;1.00
30150;DHT22;16962;48.646;9.026;2023-05-07T09:57:30;29.10;1.00
30150;DHT22;16962;48.646;9.026;2023-05-07T10:00:20;29.60;1.00
30150;DHT22;16962;48.646;9.026;2023-05-07T10:03:09;29.20;1.00
30150;DHT22;16962;48.646;9.026;2023-05-07T10:06:08;29.40;1.00
30150;DHT22;16962;48.646;9.026;2023-05-07T10:08:56;29.00;1.00
30150;DHT22;16962;48.646;9.026;2023-05-07T10:11:43;29.40;1.00
30150;DHT22;16962;48.646;9.026;2023-05-07T10:14:31;29.80;1.00
30150;DHT22;16962;48.646;9.026;2023-05-07T10:17:19;30.40;1.00
30150;DHT22;16962;48.646;9.026;2023-05-07T10:20:07;30.20;1.00
30150;DHT22;16962;48.646;9.026;2023-05-07T10:22:56;30.20;1.00
30150;DHT22;16962;48.646;9.026;2023-05-07T10:25:49;30.10;1.00
30150;DHT22;16962;48.646;9.026;2023-05-07T10:28:45;30.00;1.00
30150;DHT22;16962;48.646;9.026;2023-05-07T10:34:36;29.80;1.00
30150;DHT22;16962;48.646;9.026;2023-05-07T10:37:25;29.80;1.00
30150;DHT22;16962;48.646;9.026;2023-05-07T10:40:15;29.30;1.00
30150;DHT22;16962;48.646;9.026;2023-05-07T10:43:06;29.40;1.00
30150;DHT22;16962;48.646;9.026;2023-05-07T10:46:09;29.30;1.00
30150;DHT22;16962;48.646;9.026;2023-05-07T11:05:21;29.10;1.00
30150;DHT22;16962;48.646;9.026;2023-05-07T11:08:15;29.30;1.00
30150;DHT22;16962;48.646;9.026;2023-05-07T11:11:02;29.20;1.00
30150;DHT22;16962;48.646;9.026;2023-05-07T11:17:55;28.90;1.00
30150;DHT22;16962;48.646;9.026;2023-05-07T11:21:07;29.10;1.00
30150;DHT22;16962;48.646;9.026;2023-05-07T11:23:54;29.00;1.00
30150;DHT22;16962;48.646;9.026;2023-05-07T11:26:51;27.80;1.00
30150;DHT22;16962;48.646;9.026;2023-05-07T11:29:46;26.80;1.00
30150;DHT22;16962;48.646;9.026;2023-05-07T11:32:40;26.10;1.00
30150;DHT22;16962;48.646;9.026;2023-05-07T11:36:07;25.70;1.00
30150;DHT22;16962;48.646;9.026;2023-05-07T11:38:55;24.80;1.00
30150;DHT22;16962;48.646;9.026;2023-05-07T11:45:07;23.90;1.00
30150;DHT22;16962;48.646;9.026;2023-05-07T11:47:57;23.60;1.00
30150;DHT22;16962;48.646;9.026;2023-05-07T11:51:06;23.10;1.00
30150;DHT22;16962;48.646;9.026;2023-05-07T11:57:29;22.50;1.00
30150;DHT22;16962;48.646;9.026;2023-05-07T12:00:17;22.20;1.00
30150;DHT22;16962;48.646;9.026;2023-05-07T12:03:08;22.00;1.00
30150;DHT22;16962;48.646;9.026;2023-05-07T12:05:56;21.80;1.00
30150;DHT22;16962;48.646;9.026;2023-05-07T12:08:45;21.60;1.00
30150;DHT22;16962;48.646;9.026;2023-05-07T12:11:35;21.00;2.20
30150;DHT22;16962;48.646;9.026;2023-05-07T12:14:27;20.40;30.60
30150;DHT22;16962;48.646;9.026;2023-05-07T12:17:17;19.70;86.50
30150;DHT22;16962;48.646;9.026;2023-05-07T12:20:08;19.00;99.90
30150;DHT22;16962;48.646;9.026;2023-05-07T12:22:56;18.00;99.90
30150;DHT22;16962;48.646;9.026;2023-05-07T12:25:44;16.90;1.00
30150;DHT22;16962;48.646;9.026;2023-05-07T12:28:38;16.30;22.80
30150;DHT22;16962;48.646;9.026;2023-05-07T12:31:28;15.50;99.90
30150;DHT22;16962;48.646;9.026;2023-05-07T12:34:18;14.80;1.00
30150;DHT22;16962;48.646;9.026;2023-05-07T12:37:05;14.30;99.90
30150;DHT22;16962;48.646;9.026;2023-05-07T12:40:06;14.00;99.90
30150;DHT22;16962;48.646;9.026;2023-05-07T12:42:55;13.90;1.00
30150;DHT22;16962;48.646;9.026;2023-05-07T12:45:48;13.80;1.00
30150;DHT22;16962;48.646;9.026;2023-05-07T12:48:37;13.80;1.00
30150;DHT22;16962;48.646;9.026;2023-05-07T12:51:24;13.70;79.70
30150;DHT22;16962;48.646;9.026;2023-05-07T12:54:12;13.70;99.90
30150;DHT22;16962;48.646;9.026;2023-05-07T12:57:03;13.70;1.00
30150;DHT22;16962;48.646;9.026;2023-05-07T12:59:57;13.80;1.00
30150;DHT22;16962;48.646;9.026;2023-05-07T13:02:50;13.60;1.00
30150;DHT22;16962;48.646;9.026;2023-05-07T13:05:38;12.50;1.00
30150;DHT22;16962;48.646;9.026;2023-05-07T13:08:37;12.50;1.00
30150;DHT22;16962;48.646;9.026;2023-05-07T13:11:50;12.90;1.00
30150;DHT22;16962;48.646;9.026;2023-05-07T13:14:37;12.90;99.90
30150;DHT22;16962;48.646;9.026;2023-05-07T13:17:27;12.80;99.90
30150;DHT22;16962;48.646;9.026;2023-05-07T13:20:22;12.80;99.90
30150;DHT22;16962;48.646;9.026;2023-05-07T13:23:10;12.70;1.00
30150;DHT22;16962;48.646;9.026;2023-05-07T13:25:57;12.80;99.90
30150;DHT22;16962;48.646;9.026;2023-05-07T13:28:47;13.10;99.90
30150;DHT22;16962;48.646;9.026;2023-05-07T13:31:38;13.30;99.90
30150;DHT22;16962;48.646;9.026;2023-05-07T13:34:29;13.40;99.90
30150;DHT22;16962;48.646;9.026;2023-05-07T13:37:21;13.40;99.90
30150;DHT22;16962;48.646;9.026;2023-05-07T13:40:09;13.40;99.90
30150;DHT22;16962;48.646;9.026;2023-05-07T13:43:00;13.30;99.90
30150;DHT22;16962;48.646;9.026;2023-05-07T13:45:49;13.40;99.90
30150;DHT22;16962;48.646;9.026;2023-05-07T13:48:37;13.30;99.90
30150;DHT22;16962;48.646;9.026;2023-05-07T13:51:24;13.30;99.90
30150;DHT22;16962;48.646;9.026;2023-05-07T13:54:13;13.30;99.90
30150;DHT22;16962;48.646;9.026;2023-05-07T13:57:00;13.30;99.90
30150;DHT22;16962;48.646;9.026;2023-05-07T13:59:51;13.30;99.90
30150;DHT22;16962;48.646;9.026;2023-05-07T14:02:38;13.30;99.90
30150;DHT22;16962;48.646;9.026;2023-05-07T14:05:26;13.30;99.90
30150;DHT22;16962;48.646;9.026;2023-05-07T14:08:15;13.30;99.90
30150;DHT22;16962;48.646;9.026;2023-05-07T14:11:04;13.30;99.90
30150;DHT22;16962;48.646;9.026;2023-05-07T14:13:52;13.40;99.90
30150;DHT22;16962;48.646;9.026;2023-05-07T14:16:42;13.40;99.90
30150;DHT22;16962;48.646;9.026;2023-05-07T14:19:30;13.40;99.90
30150;DHT22;16962;48.646;9.026;2023-05-07T14:22:17;13.40;99.90
30150;DHT22;16962;48.646;9.026;2023-05-07T14:25:05;13.30;99.90
30150;DHT22;16962;48.646;9.026;2023-05-07T14:27:53;13.30;99.90
30150;DHT22;16962;48.646;9.026;2023-05-07T14:30:43;13.30;99.90
30150;DHT22;16962;48.646;9.026;2023-05-07T14:33:30;13.50;99.90
30150;DHT22;16962;48.646;9.026;2023-05-07T14:36:18;13.50;99.90
30150;DHT22;16962;48.646;9.026;2023-05-07T14:39:10;13.50;99.90
30150;DHT22;16962;48.646;9.026;2023-05-07T14:41:59;13.50;99.90
30150;DHT22;16962;48.646;9.026;2023-05-07T14:44:47;13.50;99.90
30150;DHT22;16962;48.646;9.026;2023-05-07T14:47:35;13.60;99.90
30150;DHT22;16962;48.646;9.026;2023-05-07T14:50:23;13.60;99.90
30150;DHT22;16962;48.646;9.026;2023-05-07T14:53:10;13.70;99.90
30150;DHT22;16962;48.646;9.026;2023-05-07T14:55:58;13.80;99.90
30150;DHT22;16962;48.646;9.026;2023-05-07T14:58:47;13.90;99.90
30150;DHT22;16962;48.646;9.026;2023-05-07T15:01:38;13.90;99.90
30150;DHT22;16962;48.646;9.026;2023-05-07T15:04:29;13.90;99.90
30150;DHT22;16962;48.646;9.026;2023-05-07T15:07:20;13.90;99.90
30150;DHT22;16962;48.646;9.026;2023-05-07T15:10:08;14.00;99.90
30150;DHT22;16962;48.646;9.026;2023-05-07T15:12:55;14.10;99.90
30150;DHT22;16962;48.646;9.026;2023-05-07T15:15:44;14.20;99.90
30150;DHT22;16962;48.646;9.026;2023-05-07T15:18:32;14.30;99.90
30150;DHT22;16962;48.646;9.026;2023-05-07T15:21:20;14.30;99.90
30150;DHT22;16962;48.646;9.026;2023-05-07T15:24:11;14.40;99.90
30150;DHT22;16962;48.646;9.026;2023-05-07T15:26:59;14.50;99.90
30150;DHT22;16962;48.646;9.026;2023-05-07T15:29:46;14.60;99.90
30150;DHT22;16962;48.646;9.026;2023-05-07T15:32:34;14.70;99.90
30150;DHT22;16962;48.646;9.026;2023-05-07T15:35:22;14.90;99.90
30150;DHT22;16962;48.646;9.026;2023-05-07T15:38:10;15.00;99.90
30150;DHT22;16962;48.646;9.026;2023-05-07T15:41:00;14.80;99.90
30150;DHT22;16962;48.646;9.026;2023-05-07T15:43:50;14.90;99.90
30150;DHT22;16962;48.646;9.026;2023-05-07T15:46:37;14.90;99.90
30150;DHT22;16962;48.646;9.026;2023-05-07T15:49:25;14.90;99.90
30150;DHT22;16962;48.646;9.026;2023-05-07T15:52:15;15.00;99.90
30150;DHT22;16962;48.646;9.026;2023-05-07T15:55:04;15.20;99.90
30150;DHT22;16962;48.646;9.026;2023-05-07T15:57:52;15.30;99.90
30150;DHT22;16962;48.646;9.026;2023-05-07T16:00:42;15.60;99.90
30150;DHT22;16962;48.646;9.026;2023-05-07T16:03:31;15.70;99.90
30150;DHT22;16962;48.646;9.026;2023-05-07T16:06:19;15.80;99.90
30150;DHT22;16962;48.646;9.026;2023-05-07T16:09:06;15.80;99.90
30150;DHT22;16962;48.646;9.026;2023-05-07T16:11:58;15.80;99.90
30150;DHT22;16962;48.646;9.026;2023-05-07T16:14:48;15.80;99.90
30150;DHT22;16962;48.646;9.026;2023-05-07T16:17:40;15.70;99.90
30150;DHT22;16962;48.646;9.026;2023-05-07T16:20:30;15.70;8.80
30150;DHT22;16962;48.646;9.026;2023-05-07T16:23:18;15.70;1.00
30150;DHT22;16962;48.646;9.026;2023-05-07T16:26:08;15.80;99.90
30150;DHT22;16962;48.646;9.026;2023-05-07T16:28:55;15.60;99.90
30150;DHT22;16962;48.646;9.026;2023-05-07T16:31:43;15.70;1.00
30150;DHT22;16962;48.646;9.026;2023-05-07T16:34:31;15.70;86.80
30150;DHT22;16962;48.646;9.026;2023-05-07T16:37:19;15.70;99.90
30150;DHT22;16962;48.646;9.026;2023-05-07T16:40:12;15.80;99.90
30150;DHT22;16962;48.646;9.026;2023-05-07T16:42:59;15.90;1.00
30150;DHT22;16962;48.646;9.026;2023-05-07T16:45:47;15.90;48.20
30150;DHT22;16962;48.646;9.026;2023-05-07T16:48:35;15.90;99.90
30150;DHT22;16962;48.646;9.026;2023-05-07T16:51:22;15.90;99.90
30150;DHT22;16962;48.646;9.026;2023-05-07T16:54:10;15.90;52.60
30150;DHT22;16962;48.646;9.026;2023-05-07T16:56:58;15.90;99.90
30150;DHT22;16962;48.646;9.026;2023-05-07T16:59:51;15.80;1.00
30150;DHT22;16962;48.646;9.026;2023-05-07T17:02:38;15.60;99.90
30150;DHT22;16962;48.646;9.026;2023-05-07T17:05:26;15.50;99.90
30150;DHT22;16962;48.646;9.026;2023-05-07T17:08:14;15.40;1.00
30150;DHT22;16962;48.646;9.026;2023-05-07T17:11:02;15.30;99.90
30150;DHT22;16962;48.646;9.026;2023-05-07T17:13:49;15.30;99.90
30150;DHT22;16962;48.646;9.026;2023-05-07T17:16:38;15.20;99.90
30150;DHT22;16962;48.646;9.026;2023-05-07T17:19:29;15.20;99.90
30150;DHT22;16962;48.646;9.026;2023-05-07T17:22:19;15.10;99.90
30150;DHT22;16962;48.646;9.026;2023-05-07T17:25:06;15.10;99.90
30150;DHT22;16962;48.646;9.026;2023-05-07T17:27:54;15.00;99.90
30150;DHT22;16962;48.646;9.026;2023-05-07T17:30:47;15.00;99.90
30150;DHT22;16962;48.646;9.026;2023-05-07T17:33:35;14.90;99.90
30150;DHT22;16962;48.646;9.026;2023-05-07T17:36:23;14.90;99.90
30150;DHT22;16962;48.646;9.026;2023-05-07T17:39:10;14.90;99.90
30150;DHT22;16962;48.646;9.026;2023-05-07T17:42:00;14.90;99.90
30150;DHT22;16962;48.646;9.026;2023-05-07T17:44:47;14.90;99.90
30150;DHT22;16962;48.646;9.026;2023-05-07T17:47:37;14.80;99.90
30150;DHT22;16962;48.646;9.026;2023-05-07T17:50:25;14.80;99.90
30150;DHT22;16962;48.646;9.026;2023-05-07T17:53:13;14.80;99.90
30150;DHT22;16962;48.646;9.026;2023-05-07T17:56:00;14.80;99.90
30150;DHT22;16962;48.646;9.026;2023-05-07T17:58:50;14.80;99.90
30150;DHT22;16962;48.646;9.026;2023-05-07T18:01:45;14.80;99.90
30150;DHT22;16962;48.646;9.026;2023-05-07T18:04:35;14.80;99.90
30150;DHT22;16962;48.646;9.026;2023-05-07T18:07:22;14.70;99.90
30150;DHT22;16962;48.646;9.026;2023-05-07T18:10:12;14.70;99.90
30150;DHT22;16962;48.646;9.026;2023-05-07T18:13:00;14.60;99.90
30150;DHT22;16962;48.646;9.026;2023-05-07T18:15:47;14.60;99.90
30150;DHT22;16962;48.646;9.026;2023-05-07T18:18:35;14.60;99.90
30150;DHT22;16962;48.646;9.026;2023-05-07T18:21:25;14.50;99.90
30150;DHT22;16962;48.646;9.026;2023-05-07T18:24:13;14.40;99.90
30150;DHT22;16962;48.646;9.026;2023-05-07T18:27:02;14.40;99.90
30150;DHT22;16962;48.646;9.026;2023-05-07T18:29:49;14.40;99.90
30150;DHT22;16962;48.646;9.026;2023-05-07T18:32:37;14.30;99.90
30150;DHT22;16962;48.646;9.026;2023-05-07T18:35:25;14.30;99.90